createdAt,value
2022-12-09T00:00:57.368Z,64.37
2022-12-09T00:01:59.039Z,64.18
2022-12-09T00:03:00.821Z,63.99
2022-12-09T00:04:02.879Z,63.96
2022-12-09T00:05:05.151Z,64.39
2022-12-09T00:06:10.513Z,64.37
2022-12-09T00:07:11.983Z,64.25
2022-12-09T00:08:13.574Z,64.37
2022-12-09T00:09:18.208Z,64.37
2022-12-09T00:10:19.806Z,63.93
2022-12-09T00:11:21.412Z,64.28
2022-12-09T00:12:22.930Z,64.57
2022-12-09T00:13:24.655Z,64.29
2022-12-09T00:14:28.605Z,64.32
2022-12-09T00:15:30.160Z,63.91
2022-12-09T00:16:35.494Z,64.65
2022-12-09T00:17:37.294Z,63.84
2022-12-09T00:18:39.185Z,64.22
2022-12-09T00:19:40.711Z,63.93
2022-12-09T00:20:42.237Z,64.56
2022-12-09T00:21:43.874Z,64.00
2022-12-09T00:22:45.474Z,64.05
2022-12-09T00:23:50.165Z,64.35
2022-12-09T00:24:51.873Z,64.24
2022-12-09T00:25:53.819Z,64.97
2022-12-09T00:26:55.533Z,64.60
2022-12-09T00:27:57.067Z,64.85
2022-12-09T00:28:58.726Z,64.70
2022-12-09T00:30:00.254Z,64.46
2022-12-09T00:31:02.349Z,65.04
2022-12-09T00:32:04.205Z,64.42
2022-12-09T00:33:05.871Z,64.30
2022-12-09T00:34:09.971Z,64.81
2022-12-09T00:35:12.857Z,64.69
2022-12-09T00:36:16.092Z,64.66
2022-12-09T00:37:17.681Z,64.71
2022-12-09T00:38:19.856Z,64.22
2022-12-09T00:39:21.416Z,64.53
2022-12-09T00:40:24.960Z,63.79
2022-12-09T00:41:26.642Z,64.37
2022-12-09T00:42:28.169Z,64.14
2022-12-09T00:43:29.768Z,64.35
2022-12-09T00:44:31.274Z,64.48
2022-12-09T00:45:35.522Z,64.09
2022-12-09T00:46:37.724Z,64.03
2022-12-09T00:47:40.993Z,63.95
2022-12-09T00:48:42.731Z,64.71
2022-12-09T00:49:44.298Z,64.54
2022-12-09T00:50:46.138Z,64.72
2022-12-09T00:51:49.987Z,64.51
2022-12-09T00:52:51.713Z,64.72
2022-12-09T00:54:01.578Z,64.52
2022-12-09T00:55:03.514Z,64.20
2022-12-09T00:56:08.353Z,64.52
2022-12-09T00:57:10.166Z,64.07
2022-12-09T00:58:11.919Z,64.36
2022-12-09T00:59:13.397Z,64.36
2022-12-09T01:00:15.266Z,64.62
2022-12-09T01:01:16.915Z,63.87
2022-12-09T01:02:18.895Z,64.14
2022-12-09T01:03:20.838Z,64.34
2022-12-09T01:04:24.674Z,64.42
2022-12-09T01:05:28.608Z,64.36
2022-12-09T01:06:33.257Z,63.89
2022-12-09T01:07:37.561Z,64.23
2022-12-09T01:08:39.864Z,63.79
2022-12-09T01:09:41.758Z,64.12
2022-12-09T01:10:43.828Z,64.45
2022-12-09T01:11:45.554Z,63.89
2022-12-09T01:12:47.515Z,64.00
2022-12-09T01:13:49.042Z,64.56
2022-12-09T01:14:52.554Z,63.74
2022-12-09T01:15:54.695Z,64.46
2022-12-09T01:16:56.436Z,64.32
2022-12-09T01:17:58.279Z,63.99
2022-12-09T01:19:00.495Z,64.86
2022-12-09T01:20:02.267Z,64.64
2022-12-09T01:21:03.807Z,64.86
2022-12-09T01:22:05.319Z,64.89
2022-12-09T01:23:07.084Z,64.62
2022-12-09T01:24:09.235Z,64.74
2022-12-09T01:25:11.068Z,64.59
2022-12-09T01:26:12.787Z,64.79
2022-12-09T01:27:14.944Z,64.69
2022-12-09T01:28:16.418Z,64.79
2022-12-09T01:29:18.113Z,64.40
2022-12-09T01:30:21.701Z,64.64
2022-12-09T01:31:24.107Z,64.41
2022-12-09T01:32:25.924Z,64.51
2022-12-09T01:33:27.525Z,64.43
2022-12-09T01:34:29.484Z,64.48
2022-12-09T01:35:31.048Z,64.31
2022-12-09T01:36:32.585Z,64.94
2022-12-09T01:37:37.401Z,64.27
2022-12-09T01:38:39.014Z,64.52
2022-12-09T01:39:40.693Z,64.97
2022-12-09T01:40:45.022Z,64.39
2022-12-09T01:41:46.917Z,64.76
2022-12-09T01:42:49.525Z,64.82
2022-12-09T01:44:07.484Z,64.26
2022-12-09T01:45:26.605Z,64.62
2022-12-09T01:46:28.233Z,64.74
2022-12-09T01:47:29.844Z,64.35
2022-12-09T01:48:32.283Z,64.41
2022-12-09T01:49:42.500Z,64.61
2022-12-09T01:50:44.629Z,64.31
2022-12-09T01:51:47.009Z,64.54
2022-12-09T01:52:49.276Z,63.87
2022-12-09T01:53:50.944Z,64.59
2022-12-09T01:54:53.439Z,64.38
2022-12-09T01:55:55.501Z,64.30
2022-12-09T01:56:57.417Z,64.06
2022-12-09T01:57:59.033Z,64.31
2022-12-09T01:59:02.982Z,64.38
2022-12-09T02:00:05.081Z,64.33
2022-12-09T02:01:18.040Z,63.93
2022-12-09T02:02:19.761Z,64.10
2022-12-09T02:03:22.193Z,64.05
2022-12-09T02:04:23.935Z,64.04
2022-12-09T02:05:26.014Z,64.49
2022-12-09T02:06:32.100Z,64.36
2022-12-09T02:07:34.418Z,64.06
2022-12-09T02:08:36.033Z,64.11
2022-12-09T02:09:38.736Z,64.23
2022-12-09T02:10:46.934Z,64.64
2022-12-09T02:11:49.439Z,64.56
2022-12-09T02:13:07.110Z,64.79
2022-12-09T02:14:28.866Z,64.61
2022-12-09T02:15:35.210Z,64.49
2022-12-09T02:16:40.058Z,64.16
2022-12-09T02:17:43.117Z,64.84
2022-12-09T02:18:45.553Z,64.14
2022-12-09T02:19:53.732Z,64.71
2022-12-09T02:21:02.059Z,64.81
2022-12-09T02:22:03.587Z,64.66
2022-12-09T02:23:23.649Z,64.05
2022-12-09T02:24:38.691Z,64.09
2022-12-09T02:25:44.578Z,64.27
2022-12-09T02:26:49.046Z,64.72
2022-12-09T02:27:54.656Z,64.25
2022-12-09T02:29:15.463Z,64.29
2022-12-09T02:30:17.665Z,64.21
2022-12-09T02:31:21.595Z,63.96
2022-12-09T02:32:27.444Z,64.45
2022-12-09T02:33:47.582Z,64.43
2022-12-09T02:34:59.769Z,64.43
2022-12-09T02:36:05.698Z,64.50
2022-12-09T02:37:17.694Z,64.49
2022-12-09T02:38:25.918Z,64.65
2022-12-09T02:39:36.612Z,64.80
2022-12-09T02:40:53.068Z,64.97
2022-12-09T02:41:54.750Z,64.59
2022-12-09T02:42:56.605Z,64.68
2022-12-09T02:44:08.302Z,64.36
2022-12-09T02:45:10.122Z,64.93
2022-12-09T02:46:15.213Z,64.67
2022-12-09T02:47:19.680Z,64.70
2022-12-09T02:48:26.417Z,64.90
2022-12-09T02:49:28.132Z,64.50
2022-12-09T02:50:30.575Z,64.55
2022-12-09T02:51:33.054Z,64.66
2022-12-09T02:52:34.918Z,64.58
2022-12-09T02:53:37.454Z,64.68
2022-12-09T02:54:39.685Z,64.10
2022-12-09T02:55:42.164Z,64.61
2022-12-09T02:56:46.806Z,64.04
2022-12-09T02:57:55.936Z,64.68
2022-12-09T02:59:01.565Z,64.34
2022-12-09T03:00:06.515Z,64.38
2022-12-09T03:01:41.156Z,64.34
2022-12-09T03:02:45.172Z,64.40
2022-12-09T03:03:47.136Z,64.44
2022-12-09T03:05:08.672Z,64.84
2022-12-09T03:06:10.428Z,64.45
2022-12-09T03:07:15.485Z,64.45
2022-12-09T03:08:35.525Z,64.25
2022-12-09T03:09:37.776Z,64.03
2022-12-09T03:10:39.395Z,64.30
2022-12-09T03:11:40.950Z,64.33
2022-12-09T03:12:43.338Z,64.44
2022-12-09T03:13:51.173Z,64.54
2022-12-09T03:14:52.803Z,64.27
2022-12-09T03:15:57.138Z,64.46
2022-12-09T03:17:11.324Z,64.24
2022-12-09T03:18:13.356Z,63.95
2022-12-09T03:19:33.774Z,64.34
2022-12-09T03:20:35.919Z,64.55
2022-12-09T03:21:38.833Z,63.92
2022-12-09T03:22:40.604Z,63.98
2022-12-09T03:23:50.563Z,63.88
2022-12-09T03:25:03.470Z,64.20
2022-12-09T03:26:05.262Z,64.22
2022-12-09T03:27:07.959Z,64.38
2022-12-09T03:28:11.546Z,64.15
2022-12-09T03:29:17.214Z,63.91
2022-12-09T03:30:18.796Z,64.25
2022-12-09T03:31:28.196Z,64.02
2022-12-09T03:32:29.796Z,63.92
2022-12-09T03:33:32.391Z,64.05
2022-12-09T03:34:35.710Z,64.42
2022-12-09T03:35:57.573Z,64.13
2022-12-09T03:36:59.499Z,64.23
2022-12-09T03:38:01.874Z,64.29
2022-12-09T03:39:11.799Z,63.89
2022-12-09T03:40:14.763Z,64.41
2022-12-09T03:41:19.155Z,64.30
2022-12-09T03:42:25.098Z,63.70
2022-12-09T03:43:27.742Z,64.59
2022-12-09T03:44:39.272Z,64.08
2022-12-09T03:45:41.005Z,64.25
2022-12-09T03:46:42.691Z,64.26
2022-12-09T03:47:44.532Z,64.25
2022-12-09T03:48:46.710Z,64.18
2022-12-09T03:49:50.705Z,64.02
2022-12-09T03:50:54.721Z,63.92
2022-12-09T03:52:05.197Z,63.96
2022-12-09T03:53:09.092Z,63.84
2022-12-09T03:54:21.406Z,64.18
2022-12-09T03:55:23.086Z,64.40
2022-12-09T03:56:27.169Z,64.48
2022-12-09T03:57:28.760Z,64.33
2022-12-09T03:58:33.408Z,63.85
2022-12-09T03:59:35.139Z,64.45
2022-12-09T04:00:37.663Z,64.52
2022-12-09T04:01:40.115Z,64.68
2022-12-09T04:02:41.810Z,64.42
2022-12-09T04:03:44.301Z,64.38
2022-12-09T04:04:46.095Z,64.63
2022-12-09T04:05:47.843Z,64.40
2022-12-09T04:06:52.923Z,64.67
2022-12-09T04:07:54.796Z,64.51
2022-12-09T04:09:01.923Z,64.66
2022-12-09T04:10:06.925Z,64.13
2022-12-09T04:11:09.027Z,64.30
2022-12-09T04:12:14.037Z,64.51
2022-12-09T04:13:15.596Z,64.24
2022-12-09T04:14:19.292Z,64.27
2022-12-09T04:15:22.168Z,64.21
2022-12-09T04:16:23.835Z,64.10
2022-12-09T04:17:26.707Z,64.13
2022-12-09T04:18:29.067Z,64.33
2022-12-09T04:19:34.657Z,64.50
2022-12-09T04:20:36.350Z,64.13
2022-12-09T04:21:37.948Z,63.98
2022-12-09T04:22:39.824Z,64.33
2022-12-09T04:23:43.493Z,64.33
2022-12-09T04:24:45.309Z,64.16
2022-12-09T04:25:46.853Z,64.24
2022-12-09T04:26:48.348Z,63.84
2022-12-09T04:27:59.176Z,64.41
2022-12-09T04:29:01.249Z,63.78
2022-12-09T04:30:02.923Z,64.19
2022-12-09T04:31:05.222Z,63.77
2022-12-09T04:32:07.082Z,64.24
2022-12-09T04:33:08.660Z,64.03
2022-12-09T04:34:10.768Z,64.29
2022-12-09T04:35:14.886Z,64.27
2022-12-09T04:36:16.899Z,64.16
2022-12-09T04:37:18.692Z,64.28
2022-12-09T04:38:20.242Z,64.48
2022-12-09T04:39:21.691Z,64.24
2022-12-09T04:40:24.578Z,64.31
2022-12-09T04:41:26.651Z,64.04
2022-12-09T04:42:31.082Z,64.36
2022-12-09T04:43:32.565Z,64.03
2022-12-09T04:44:34.127Z,63.74
2022-12-09T04:45:36.272Z,64.15
2022-12-09T04:46:37.768Z,63.74
2022-12-09T04:47:39.345Z,64.25
2022-12-09T04:48:43.901Z,63.94
2022-12-09T04:49:45.388Z,63.89
2022-12-09T04:50:50.497Z,63.53
2022-12-09T04:51:55.149Z,63.77
2022-12-09T04:52:57.403Z,63.86
2022-12-09T04:53:59.251Z,63.87
2022-12-09T04:55:02.547Z,63.89
2022-12-09T04:56:08.479Z,63.82
2022-12-09T04:57:12.346Z,63.78
2022-12-09T04:58:13.956Z,64.13
2022-12-09T04:59:19.748Z,64.05
2022-12-09T05:00:23.688Z,64.30
2022-12-09T05:01:30.619Z,64.38
2022-12-09T05:02:36.443Z,64.09
2022-12-09T05:03:38.539Z,64.07
2022-12-09T05:04:40.423Z,64.44
2022-12-09T05:05:42.434Z,64.13
2022-12-09T05:06:46.532Z,64.37
2022-12-09T05:07:48.545Z,64.43
2022-12-09T05:08:50.594Z,64.45
2022-12-09T05:09:52.430Z,64.05
2022-12-09T05:10:57.396Z,64.26
2022-12-09T05:11:59.341Z,64.26
2022-12-09T05:13:01.476Z,64.18
2022-12-09T05:14:03.142Z,64.27
2022-12-09T05:15:05.190Z,64.25
2022-12-09T05:16:13.884Z,64.45
2022-12-09T05:17:17.514Z,64.18
2022-12-09T05:18:19.799Z,64.43
2022-12-09T05:19:21.838Z,64.60
2022-12-09T05:20:28.064Z,64.46
2022-12-09T05:21:30.067Z,64.40
2022-12-09T05:22:35.867Z,64.46
2022-12-09T05:23:37.525Z,64.59
2022-12-09T05:24:41.122Z,64.68
2022-12-09T05:25:46.004Z,64.69
2022-12-09T05:26:47.497Z,64.72
2022-12-09T05:27:49.300Z,64.49
2022-12-09T05:28:53.845Z,64.40
2022-12-09T05:29:55.386Z,64.54
2022-12-09T05:31:03.938Z,64.37
2022-12-09T05:32:05.902Z,64.39
2022-12-09T05:33:08.322Z,64.64
2022-12-09T05:34:10.120Z,64.58
2022-12-09T05:35:12.085Z,64.54
2022-12-09T05:36:14.491Z,64.35
2022-12-09T05:37:16.175Z,64.07
2022-12-09T05:38:19.553Z,64.02
2022-12-09T05:39:21.575Z,64.03
2022-12-09T05:40:23.525Z,64.17
2022-12-09T05:41:25.202Z,64.34
2022-12-09T05:42:26.965Z,64.11
2022-12-09T05:43:28.910Z,64.16
2022-12-09T05:44:31.179Z,64.05
2022-12-09T05:45:36.286Z,64.20
2022-12-09T05:46:40.368Z,64.22
2022-12-09T05:47:42.449Z,64.47
2022-12-09T05:48:45.211Z,64.48
2022-12-09T05:49:46.939Z,64.31
2022-12-09T05:51:01.363Z,64.40
2022-12-09T05:52:05.554Z,64.76
2022-12-09T05:53:07.288Z,64.82
2022-12-09T05:54:09.015Z,64.72
2022-12-09T05:55:11.162Z,64.57
2022-12-09T05:56:17.072Z,64.73
2022-12-09T05:57:19.112Z,64.55
2022-12-09T05:58:21.153Z,64.51
2022-12-09T05:59:22.729Z,64.80
2022-12-09T06:00:24.416Z,64.57
2022-12-09T06:01:26.532Z,64.57
2022-12-09T06:02:28.526Z,64.63
2022-12-09T06:03:30.642Z,64.35
2022-12-09T06:04:32.490Z,64.69
2022-12-09T06:05:34.581Z,64.41
2022-12-09T06:06:36.980Z,64.62
2022-12-09T06:07:38.916Z,64.28
2022-12-09T06:08:41.389Z,64.55
2022-12-09T06:09:44.496Z,64.34
2022-12-09T06:10:47.094Z,64.11
2022-12-09T06:11:49.070Z,63.92
2022-12-09T06:12:53.836Z,64.27
2022-12-09T06:13:55.484Z,64.43
2022-12-09T06:14:57.266Z,64.08
2022-12-09T06:16:04.461Z,63.94
2022-12-09T06:17:06.146Z,63.92
2022-12-09T06:18:08.153Z,64.12
2022-12-09T06:19:10.667Z,64.25
2022-12-09T06:20:12.930Z,64.28
2022-12-09T06:21:16.370Z,64.06
2022-12-09T06:22:17.991Z,63.82
2022-12-09T06:23:19.574Z,64.17
2022-12-09T06:24:21.210Z,64.04
2022-12-09T06:25:22.766Z,63.97
2022-12-09T06:26:25.636Z,64.14
2022-12-09T06:27:30.340Z,64.17
2022-12-09T06:28:34.005Z,63.93
2022-12-09T06:29:41.255Z,64.07
2022-12-09T06:30:42.845Z,63.99
2022-12-09T06:31:44.470Z,63.96
2022-12-09T06:32:46.771Z,64.96
2022-12-09T06:33:57.701Z,65.73
2022-12-09T06:35:00.759Z,66.66
2022-12-09T06:36:03.437Z,66.12
2022-12-09T06:37:05.198Z,65.36
2022-12-09T06:38:06.988Z,65.01
2022-12-09T06:39:11.016Z,64.95
2022-12-09T06:40:13.854Z,64.88
2022-12-09T06:41:15.612Z,64.93
2022-12-09T06:42:17.928Z,65.50
2022-12-09T06:43:19.520Z,65.20
2022-12-09T06:44:23.741Z,65.08
2022-12-09T06:45:25.963Z,65.08
2022-12-09T06:46:28.195Z,65.05
2022-12-09T06:47:29.935Z,64.98
2022-12-09T06:48:32.669Z,65.14
2022-12-09T06:49:37.698Z,64.86
2022-12-09T06:50:39.727Z,64.58
2022-12-09T06:51:41.591Z,64.68
2022-12-09T06:52:43.521Z,64.71
2022-12-09T06:53:45.549Z,64.66
2022-12-09T06:54:47.430Z,64.66
2022-12-09T06:55:49.436Z,64.60
2022-12-09T06:56:51.441Z,64.58
2022-12-09T06:57:52.983Z,64.79
2022-12-09T06:58:54.856Z,64.73
2022-12-09T06:59:57.610Z,64.70
2022-12-09T07:01:13.769Z,64.81
2022-12-09T07:02:16.044Z,64.86
2022-12-09T07:03:18.115Z,64.50
2022-12-09T07:04:19.911Z,64.59
2022-12-09T07:05:24.208Z,64.69
2022-12-09T07:06:30.368Z,64.75
2022-12-09T07:07:33.185Z,64.82
2022-12-09T07:08:34.975Z,64.65
2022-12-09T07:09:36.953Z,64.74
2022-12-09T07:10:39.254Z,65.17
2022-12-09T07:11:44.557Z,65.00
2022-12-09T07:12:46.423Z,65.00
2022-12-09T07:13:48.047Z,65.14
2022-12-09T07:14:49.776Z,64.92
2022-12-09T07:15:53.912Z,65.12
2022-12-09T07:16:55.885Z,65.12
2022-12-09T07:17:59.276Z,65.25
2022-12-09T07:19:01.236Z,65.27
2022-12-09T07:20:07.077Z,65.24
2022-12-09T07:21:12.720Z,65.41
2022-12-09T07:22:14.622Z,65.60
2022-12-09T07:23:18.963Z,65.47
2022-12-09T07:24:20.791Z,65.71
2022-12-09T07:25:22.781Z,65.67
2022-12-09T07:26:26.822Z,65.72
2022-12-09T07:27:31.121Z,65.59
2022-12-09T07:28:33.323Z,65.56
2022-12-09T07:29:37.851Z,65.64
2022-12-09T07:30:39.655Z,65.30
2022-12-09T07:31:41.422Z,65.54
2022-12-09T07:32:43.305Z,65.59
2022-12-09T07:33:45.374Z,65.43
2022-12-09T07:34:47.170Z,65.37
2022-12-09T07:35:53.287Z,65.43
2022-12-09T07:36:55.429Z,65.39
2022-12-09T07:37:59.871Z,65.38
2022-12-09T07:39:05.489Z,65.54
2022-12-09T07:40:07.366Z,65.25
2022-12-09T07:41:09.470Z,65.37
2022-12-09T07:42:11.340Z,65.27
2022-12-09T07:43:21.272Z,65.38
2022-12-09T07:44:24.101Z,65.08
2022-12-09T07:45:29.549Z,65.42
2022-12-09T07:46:31.505Z,65.66
2022-12-09T07:47:38.521Z,65.85
2022-12-09T07:48:40.708Z,65.77
2022-12-09T07:49:45.368Z,65.89
2022-12-09T07:50:47.301Z,65.63
2022-12-09T07:51:54.325Z,65.77
2022-12-09T07:52:56.124Z,65.57
2022-12-09T07:53:57.961Z,65.79
2022-12-09T07:55:01.589Z,66.09
2022-12-09T07:56:09.886Z,65.85
2022-12-09T07:57:11.481Z,66.04
2022-12-09T07:58:16.408Z,66.06
2022-12-09T07:59:18.445Z,65.91
2022-12-09T08:00:20.214Z,66.00
2022-12-09T08:01:26.048Z,65.87
2022-12-09T08:02:28.875Z,66.12
2022-12-09T08:03:30.533Z,66.25
2022-12-09T08:04:32.680Z,66.05
2022-12-09T08:05:34.739Z,66.13
2022-12-09T08:06:36.842Z,66.08
2022-12-09T08:07:43.849Z,66.04
2022-12-09T08:08:46.431Z,66.03
2022-12-09T08:09:48.223Z,65.86
2022-12-09T08:10:50.170Z,65.93
2022-12-09T08:11:51.892Z,65.90
2022-12-09T08:12:56.861Z,65.81
2022-12-09T08:14:07.210Z,65.49
2022-12-09T08:15:20.180Z,65.44
2022-12-09T08:16:22.594Z,65.53
2022-12-09T08:17:32.177Z,65.28
2022-12-09T08:18:34.378Z,65.40
2022-12-09T08:19:43.720Z,65.39
2022-12-09T08:20:45.528Z,65.23
2022-12-09T08:21:52.882Z,65.47
2022-12-09T08:22:56.388Z,65.17
2022-12-09T08:23:59.898Z,64.92
2022-12-09T08:25:01.972Z,64.58
2022-12-09T08:26:06.421Z,64.75
2022-12-09T08:27:08.505Z,64.63
2022-12-09T08:28:13.100Z,64.95
2022-12-09T08:29:17.523Z,64.96
2022-12-09T08:30:19.650Z,64.93
2022-12-09T08:31:23.289Z,65.15
2022-12-09T08:32:28.064Z,64.87
2022-12-09T08:33:37.368Z,65.22
2022-12-09T08:34:39.507Z,65.08
2022-12-09T08:35:41.211Z,65.14
2022-12-09T08:36:43.354Z,64.98
2022-12-09T08:37:45.230Z,65.19
2022-12-09T08:38:48.798Z,64.85
2022-12-09T08:39:50.370Z,64.96
2022-12-09T08:40:51.841Z,65.03
2022-12-09T08:41:53.523Z,64.74
2022-12-09T08:42:58.079Z,65.11
2022-12-09T08:44:02.885Z,64.82
2022-12-09T08:45:04.847Z,64.92
2022-12-09T08:46:07.008Z,64.92
2022-12-09T08:47:08.990Z,64.84
2022-12-09T08:48:11.206Z,64.91
2022-12-09T08:49:13.407Z,64.55
2022-12-09T08:50:16.130Z,64.86
2022-12-09T08:51:18.457Z,65.09
2022-12-09T08:52:20.427Z,65.00
2022-12-09T08:53:22.189Z,64.67
2022-12-09T08:54:24.214Z,65.24
2022-12-09T08:55:26.003Z,65.04
2022-12-09T08:56:27.762Z,64.92
2022-12-09T08:57:29.532Z,65.04
2022-12-09T08:58:31.461Z,64.80
2022-12-09T08:59:33.456Z,65.28
2022-12-09T09:00:35.202Z,65.34
2022-12-09T09:01:39.856Z,64.98
2022-12-09T09:02:44.179Z,65.45
2022-12-09T09:03:48.080Z,65.64
2022-12-09T09:04:49.879Z,65.61
2022-12-09T09:05:54.320Z,65.31
2022-12-09T09:06:56.324Z,65.11
2022-12-09T09:07:58.728Z,65.42
2022-12-09T09:09:00.402Z,65.30
2022-12-09T09:10:02.643Z,65.55
2022-12-09T09:11:10.465Z,65.69
2022-12-09T09:12:12.150Z,65.62
2022-12-09T09:13:14.173Z,65.60
2022-12-09T09:14:16.765Z,65.57
2022-12-09T09:15:18.704Z,65.47
2022-12-09T09:16:21.660Z,65.45
2022-12-09T09:17:23.763Z,65.43
2022-12-09T09:18:26.053Z,65.52
2022-12-09T09:19:27.897Z,65.58
2022-12-09T09:20:29.583Z,65.51
2022-12-09T09:21:31.403Z,65.45
2022-12-09T09:22:33.325Z,65.81
2022-12-09T09:23:35.324Z,65.76
2022-12-09T09:24:37.109Z,65.79
2022-12-09T09:25:42.711Z,65.63
2022-12-09T09:26:45.063Z,65.50
2022-12-09T09:27:46.624Z,65.27
2022-12-09T09:28:48.224Z,65.13
2022-12-09T09:29:50.214Z,65.83
2022-12-09T09:30:58.390Z,65.20
2022-12-09T09:32:00.570Z,65.30
2022-12-09T09:33:06.025Z,65.41
2022-12-09T09:34:12.162Z,65.20
2022-12-09T09:35:19.792Z,65.57
2022-12-09T09:36:22.641Z,65.50
2022-12-09T09:37:24.570Z,65.05
2022-12-09T09:38:26.396Z,65.05
2022-12-09T09:39:28.101Z,65.13
2022-12-09T09:40:40.768Z,65.05
2022-12-09T09:43:00.206Z,65.04
2022-12-09T09:44:05.404Z,65.16
2022-12-09T09:45:07.508Z,65.26
2022-12-09T09:46:09.468Z,64.89
2022-12-09T09:47:13.995Z,64.78
2022-12-09T09:48:17.690Z,64.78
2022-12-09T09:49:25.408Z,65.33
2022-12-09T09:50:32.774Z,64.89
2022-12-09T09:51:37.405Z,64.70
2022-12-09T09:52:39.491Z,65.06
2022-12-09T09:53:42.432Z,64.56
2022-12-09T09:54:44.357Z,64.80
2022-12-09T09:55:53.237Z,64.64
2022-12-09T09:56:56.817Z,65.14
2022-12-09T09:58:14.400Z,64.79
2022-12-09T09:59:31.238Z,64.67
2022-12-09T10:00:37.208Z,64.70
2022-12-09T10:01:39.416Z,64.72
2022-12-09T10:02:45.874Z,64.43
2022-12-09T10:03:53.614Z,63.82
2022-12-09T10:05:10.344Z,64.35
2022-12-09T10:06:22.904Z,64.25
2022-12-09T10:07:37.899Z,63.65
2022-12-09T10:08:59.551Z,64.21
2022-12-09T10:10:01.815Z,64.34
2022-12-09T10:11:07.096Z,63.87
2022-12-09T10:12:09.006Z,63.98
2022-12-09T10:13:16.231Z,63.35
2022-12-09T10:15:30.447Z,63.75
2022-12-09T10:16:54.186Z,64.02
2022-12-09T10:18:05.409Z,62.97
2022-12-09T10:19:22.682Z,62.38
2022-12-09T10:20:25.554Z,61.74
2022-12-09T10:21:28.209Z,62.31
2022-12-09T10:22:30.640Z,61.72
2022-12-09T10:23:35.390Z,61.75
2022-12-09T10:24:40.527Z,61.88
2022-12-09T10:25:55.811Z,61.21
2022-12-09T10:27:15.369Z,60.97
2022-12-09T10:28:19.479Z,60.89
2022-12-09T10:29:24.051Z,61.47
2022-12-09T10:30:29.946Z,61.25
2022-12-09T10:31:35.195Z,61.32
2022-12-09T10:32:43.125Z,60.72
2022-12-09T10:33:44.770Z,60.68
2022-12-09T10:34:47.694Z,60.58
2022-12-09T10:35:49.709Z,60.39
2022-12-09T10:36:51.948Z,59.41
2022-12-09T10:37:54.251Z,59.80
2022-12-09T10:38:56.136Z,59.62
2022-12-09T10:40:10.958Z,59.18
2022-12-09T10:41:51.892Z,59.00
2022-12-09T10:43:13.121Z,58.25
2022-12-09T10:44:18.955Z,58.23
2022-12-09T10:45:20.998Z,58.14
2022-12-09T10:46:24.288Z,57.94
2022-12-09T10:47:27.180Z,57.07
2022-12-09T10:48:36.481Z,57.74
2022-12-09T10:49:38.603Z,57.28
2022-12-09T10:50:40.429Z,57.93
2022-12-09T10:51:42.421Z,56.95
2022-12-09T10:52:46.766Z,57.43
2022-12-09T10:53:51.696Z,57.67
2022-12-09T10:54:53.699Z,57.47
2022-12-09T10:55:55.611Z,57.50
2022-12-09T10:57:07.622Z,56.26
2022-12-09T10:58:22.651Z,55.08
2022-12-09T10:59:29.925Z,55.20
2022-12-09T11:00:35.007Z,54.73
2022-12-09T11:01:53.046Z,54.86
2022-12-09T11:02:57.720Z,54.75
2022-12-09T11:03:59.830Z,55.66
2022-12-09T11:05:20.868Z,55.26
2022-12-09T11:06:33.431Z,55.25
2022-12-09T11:07:37.901Z,54.66
2022-12-09T11:08:40.717Z,54.70
2022-12-09T11:09:46.950Z,54.66
2022-12-09T11:10:56.558Z,54.41
2022-12-09T11:12:01.196Z,54.39
2022-12-09T11:13:09.740Z,54.15
2022-12-09T11:14:30.567Z,54.71
2022-12-09T11:15:38.211Z,55.30
2022-12-09T11:16:40.075Z,55.31
2022-12-09T11:17:43.355Z,55.33
2022-12-09T11:18:46.522Z,55.26
2022-12-09T11:20:08.589Z,55.34
2022-12-09T11:22:44.179Z,55.47
2022-12-09T11:23:57.174Z,55.34
2022-12-09T11:25:13.358Z,54.93
2022-12-09T11:26:22.362Z,55.04
2022-12-09T11:27:24.291Z,55.35
2022-12-09T11:28:33.580Z,55.55
2022-12-09T11:29:35.104Z,55.17
2022-12-09T11:30:43.325Z,54.79
2022-12-09T11:32:00.099Z,55.24
2022-12-09T11:33:22.851Z,55.39
2022-12-09T11:34:27.442Z,55.59
2022-12-09T11:35:31.287Z,55.30
2022-12-09T11:36:35.347Z,55.24
2022-12-09T11:37:41.256Z,55.18
2022-12-09T11:38:43.759Z,55.31
2022-12-09T11:39:48.920Z,55.32
2022-12-09T11:41:10.621Z,55.45
2022-12-09T11:42:18.890Z,55.21
2022-12-09T11:43:20.667Z,55.35
2022-12-09T11:44:24.472Z,55.64
2022-12-09T11:45:28.121Z,55.44
2022-12-09T11:46:30.117Z,55.48
2022-12-09T11:48:25.859Z,55.26
2022-12-09T11:49:17.908Z,55.06
2022-12-09T11:50:23.807Z,54.82
2022-12-09T11:51:35.177Z,54.64
2022-12-09T11:52:36.619Z,54.70
2022-12-09T11:53:40.005Z,54.77
2022-12-09T11:54:44.176Z,54.87
2022-12-09T11:55:49.746Z,54.57
2022-12-09T11:56:51.462Z,54.70
2022-12-09T11:57:52.919Z,54.75
2022-12-09T11:59:00.146Z,54.68
2022-12-09T12:00:03.662Z,54.38
2022-12-09T12:01:12.003Z,54.30
2022-12-09T12:02:16.563Z,54.43
2022-12-09T12:03:23.348Z,54.66
2022-12-09T12:04:33.571Z,54.23
2022-12-09T12:05:39.208Z,54.49
2022-12-09T12:06:40.637Z,54.61
2022-12-09T12:07:44.436Z,54.83
2022-12-09T12:08:47.771Z,54.43
2022-12-09T12:09:49.376Z,54.68
2022-12-09T12:10:53.043Z,54.76
2022-12-09T12:12:01.110Z,54.69
2022-12-09T12:13:07.153Z,54.89
2022-12-09T12:14:21.311Z,54.81
2022-12-09T12:15:24.890Z,54.95
2022-12-09T12:16:31.542Z,54.78
2022-12-09T12:17:41.147Z,54.71
2022-12-09T12:18:50.011Z,54.56
2022-12-09T12:19:52.037Z,54.79
2022-12-09T12:21:06.280Z,54.68
2022-12-09T12:22:24.350Z,54.61
2022-12-09T12:23:28.653Z,54.21
2022-12-09T12:24:42.292Z,54.25
2022-12-09T12:25:50.465Z,54.49
2022-12-09T12:27:12.818Z,54.57
2022-12-09T12:28:14.301Z,54.44
2022-12-09T12:29:18.569Z,54.81
2022-12-09T12:30:20.921Z,54.50
2022-12-09T12:31:45.749Z,54.65
2022-12-09T12:33:40.844Z,54.69
2022-12-09T12:34:28.334Z,54.88
2022-12-09T12:35:49.152Z,54.84
2022-12-09T12:36:56.790Z,55.24
2022-12-09T12:38:12.510Z,55.00
2022-12-09T12:39:20.845Z,55.14
2022-12-09T12:40:40.900Z,55.24
2022-12-09T12:41:50.790Z,55.59
2022-12-09T12:43:24.361Z,55.25
2022-12-09T12:44:57.133Z,55.24
2022-12-09T12:46:17.323Z,55.71
2022-12-09T12:47:22.479Z,55.42
2022-12-09T12:48:29.170Z,55.86
2022-12-09T12:49:41.590Z,55.94
2022-12-09T12:50:51.649Z,55.96
2022-12-09T12:51:54.526Z,56.12
2022-12-09T12:52:59.296Z,56.22
2022-12-09T12:54:20.638Z,56.62
2022-12-09T12:55:28.104Z,56.47
2022-12-09T12:56:35.926Z,57.11
2022-12-09T12:57:45.543Z,56.93
2022-12-09T12:58:47.046Z,56.89
2022-12-09T12:59:54.718Z,56.81
2022-12-09T13:01:14.778Z,56.83
2022-12-09T13:02:32.932Z,56.88
2022-12-09T13:03:47.531Z,56.63
2022-12-09T13:04:50.646Z,56.81
2022-12-09T13:05:53.781Z,56.71
2022-12-09T13:07:02.342Z,56.66
2022-12-09T13:08:16.009Z,57.00
2022-12-09T13:09:37.793Z,57.02
2022-12-09T13:10:40.888Z,56.97
2022-12-09T13:11:55.267Z,56.85
2022-12-09T13:12:57.109Z,56.77
2022-12-09T13:14:06.482Z,56.72
2022-12-09T13:15:32.103Z,56.78
2022-12-09T13:16:38.207Z,57.43
2022-12-09T13:17:39.723Z,57.11
2022-12-09T13:18:41.213Z,57.23
2022-12-09T13:19:51.052Z,57.24
2022-12-09T13:20:52.583Z,57.13
2022-12-09T13:21:56.810Z,56.64
2022-12-09T13:23:17.337Z,56.87
2022-12-09T13:24:26.875Z,57.06
2022-12-09T13:25:34.346Z,57.35
2022-12-09T13:26:38.594Z,57.80
2022-12-09T13:27:45.390Z,57.85
2022-12-09T13:28:52.474Z,57.34
2022-12-09T13:30:03.185Z,58.04
2022-12-09T13:31:09.086Z,57.65
2022-12-09T13:32:29.265Z,57.74
2022-12-09T13:33:42.658Z,57.73
2022-12-09T13:34:54.391Z,57.44
2022-12-09T13:36:12.732Z,57.12
2022-12-09T13:37:32.930Z,57.19
2022-12-09T13:38:40.556Z,57.43
2022-12-09T13:39:49.503Z,57.88
2022-12-09T13:40:50.953Z,57.93
2022-12-09T13:42:10.871Z,57.47
2022-12-09T13:43:14.790Z,58.05
2022-12-09T13:44:22.290Z,58.22
2022-12-09T13:45:25.825Z,57.53
2022-12-09T13:46:27.478Z,57.73
2022-12-09T13:47:35.127Z,57.14
2022-12-09T13:48:38.290Z,57.59
2022-12-09T13:49:39.734Z,57.33
2022-12-09T13:50:42.199Z,57.43
2022-12-09T13:51:51.723Z,57.07
2022-12-09T13:52:54.466Z,57.20
2022-12-09T13:53:58.539Z,56.54
2022-12-09T13:55:03.140Z,56.79
2022-12-09T13:56:05.702Z,56.87
2022-12-09T13:57:13.359Z,57.24
2022-12-09T13:58:30.498Z,57.03
2022-12-09T13:59:31.940Z,57.14
2022-12-09T14:00:33.702Z,56.99
2022-12-09T14:01:36.578Z,56.68
2022-12-09T14:02:42.147Z,57.06